createdAt,value
2022-08-20T00:02:07.912Z,38.88
2022-08-20T00:05:09.862Z,35.35
2022-08-20T00:08:12.361Z,37.40
2022-08-20T00:11:19.351Z,32.42
2022-08-20T00:14:20.969Z,31.60
2022-08-20T00:17:22.622Z,36.90
2022-08-20T00:20:29.345Z,27.20
2022-08-20T00:23:30.939Z,31.75
2022-08-20T00:26:32.598Z,33.58
2022-08-20T00:29:34.267Z,28.60
2022-08-20T00:32:43.330Z,30.92
2022-08-20T00:35:50.201Z,33.60
2022-08-20T00:38:51.807Z,32.00
2022-08-20T00:41:54.856Z,32.53
2022-08-20T00:44:56.453Z,30.30
2022-08-20T00:47:59.137Z,33.00
2022-08-20T00:51:15.638Z,38.03
2022-08-20T00:54:19.701Z,38.58
2022-08-20T00:58:00.573Z,38.22
2022-08-20T01:01:05.449Z,45.30
2022-08-20T01:04:07.055Z,35.40
2022-08-20T01:07:08.727Z,34.10
2022-08-20T01:10:19.395Z,33.17
2022-08-20T01:13:23.902Z,41.05
2022-08-20T01:16:31.048Z,37.67
2022-08-20T01:19:40.516Z,38.10
2022-08-20T01:23:25.034Z,38.23
2022-08-20T01:26:40.397Z,38.67
2022-08-20T01:29:42.119Z,39.45
2022-08-20T01:32:43.715Z,41.85
2022-08-20T01:35:45.409Z,49.63
2022-08-20T01:38:50.264Z,32.22
2022-08-20T01:42:16.130Z,37.55
2022-08-20T01:45:17.875Z,34.22
2022-08-20T01:48:20.851Z,37.08
2022-08-20T01:51:27.704Z,43.17
2022-08-20T01:54:29.361Z,35.78
2022-08-20T01:57:31.223Z,34.97
2022-08-20T02:00:35.495Z,42.65
2022-08-20T02:03:40.757Z,30.20
2022-08-20T02:06:56.462Z,44.67
2022-08-20T02:09:59.733Z,28.35
2022-08-20T02:13:01.595Z,25.67
2022-08-20T02:16:04.364Z,32.40
2022-08-20T02:19:19.457Z,33.95
2022-08-20T02:22:39.632Z,35.78
2022-08-20T02:25:47.423Z,25.25
2022-08-20T02:28:51.743Z,33.15
2022-08-20T02:32:24.519Z,42.05
2022-08-20T02:35:17.093Z,33.95
2022-08-20T02:38:19.356Z,32.75
2022-08-20T02:41:24.042Z,34.33
2022-08-20T02:44:25.750Z,32.65
2022-08-20T02:47:27.791Z,40.72
2022-08-20T02:50:30.192Z,34.22
2022-08-20T02:53:34.626Z,40.55
2022-08-20T02:56:36.372Z,44.67
2022-08-20T02:59:38.725Z,37.22
2022-08-20T03:02:40.746Z,29.77
2022-08-20T03:05:44.287Z,29.10
2022-08-20T03:08:45.888Z,28.88
2022-08-20T03:11:47.448Z,29.27
2022-08-20T03:14:49.065Z,26.70
2022-08-20T03:17:50.987Z,30.00
2022-08-20T03:20:52.697Z,35.42
2022-08-20T03:23:56.729Z,35.20
2022-08-20T03:26:58.413Z,36.90
2022-08-20T03:30:00.218Z,26.58
2022-08-20T03:33:02.471Z,31.00
2022-08-20T03:36:05.729Z,40.00
2022-08-20T03:39:11.588Z,32.75
2022-08-20T03:42:13.245Z,32.13
2022-08-20T03:45:18.484Z,42.05
2022-08-20T03:48:22.506Z,35.20
2022-08-20T03:51:24.150Z,33.83
2022-08-20T03:54:27.451Z,34.28
2022-08-20T03:57:33.709Z,39.72
2022-08-20T04:00:46.249Z,27.75
2022-08-20T04:03:51.031Z,42.00
2022-08-20T04:06:56.348Z,32.13
2022-08-20T04:09:58.010Z,30.17
2022-08-20T04:13:00.142Z,29.83
2022-08-20T04:16:07.838Z,30.30
2022-08-20T04:19:13.454Z,32.97
2022-08-20T04:22:15.131Z,39.83
2022-08-20T04:25:16.884Z,39.10
2022-08-20T04:28:28.629Z,34.00
2022-08-20T04:31:33.715Z,39.97
2022-08-20T04:34:35.701Z,34.53
2022-08-20T04:37:39.458Z,32.70
2022-08-20T04:41:00.681Z,32.75
2022-08-20T04:44:02.436Z,43.95
2022-08-20T04:47:04.094Z,33.38
2022-08-20T04:50:09.891Z,43.30
2022-08-20T04:53:13.907Z,41.72
2022-08-20T04:56:15.522Z,37.75
2022-08-20T04:59:17.292Z,42.17
2022-08-20T05:02:20.280Z,42.60
2022-08-20T05:05:22.434Z,43.40
2022-08-20T05:08:25.516Z,51.05
2022-08-20T05:11:33.380Z,39.50
2022-08-20T05:14:37.805Z,39.42
2022-08-20T05:17:41.011Z,50.67
2022-08-20T05:20:42.654Z,43.38
2022-08-20T05:23:44.263Z,31.65
2022-08-20T05:26:46.530Z,38.15
2022-08-20T05:29:48.200Z,33.50
2022-08-20T05:32:50.086Z,36.63
2022-08-20T05:35:53.344Z,33.15
2022-08-20T05:38:54.928Z,45.88
2022-08-20T05:41:57.026Z,33.90
2022-08-20T05:44:58.636Z,35.33
2022-08-20T05:48:08.394Z,35.55
2022-08-20T05:51:13.298Z,34.70
2022-08-20T05:54:16.846Z,42.28
2022-08-20T05:57:19.986Z,41.17
2022-08-20T06:00:21.551Z,37.55
2022-08-20T06:03:41.739Z,42.75
2022-08-20T06:06:46.194Z,33.20
2022-08-20T06:09:49.061Z,37.85
2022-08-20T06:12:53.185Z,43.33
2022-08-20T06:15:56.753Z,41.25
2022-08-20T06:19:02.947Z,41.20
2022-08-20T06:22:17.851Z,43.10
2022-08-20T06:25:21.793Z,50.17
2022-08-20T06:28:23.536Z,44.58
2022-08-20T06:31:25.180Z,43.03
2022-08-20T06:34:28.245Z,45.65
2022-08-20T06:37:36.404Z,47.67
2022-08-20T06:40:38.481Z,51.53
2022-08-20T06:43:40.088Z,49.25
2022-08-20T06:46:43.880Z,42.90
2022-08-20T06:49:45.959Z,47.30
2022-08-20T06:52:52.856Z,45.13
2022-08-20T06:55:57.849Z,45.00
2022-08-20T06:58:59.944Z,38.60
2022-08-20T07:02:01.591Z,39.95
2022-08-20T07:05:06.297Z,34.63
2022-08-20T07:08:13.631Z,39.50
2022-08-20T07:11:15.303Z,43.22
2022-08-20T07:14:18.256Z,39.72
2022-08-20T07:17:19.884Z,44.97
2022-08-20T07:20:21.615Z,41.92
2022-08-20T07:23:24.991Z,50.83
2022-08-20T07:26:27.042Z,48.10
2022-08-20T07:29:49.738Z,35.92
2022-08-20T07:32:51.447Z,44.40
2022-08-20T07:35:53.063Z,37.55
2022-08-20T07:38:54.888Z,40.63
2022-08-20T07:42:07.096Z,45.83
2022-08-20T07:45:11.331Z,50.28
2022-08-20T07:48:14.255Z,58.15
2022-08-20T07:51:32.907Z,58.83
2022-08-20T07:54:35.736Z,63.03
2022-08-20T07:57:40.302Z,58.58
2022-08-20T08:00:42.010Z,54.92
2022-08-20T08:03:49.628Z,44.90
2022-08-20T08:06:52.605Z,50.47
2022-08-20T08:09:55.587Z,58.22
2022-08-20T08:13:02.195Z,46.83
2022-08-20T08:16:06.453Z,46.55
2022-08-20T08:19:11.801Z,48.83
2022-08-20T08:22:16.233Z,43.75
2022-08-20T08:25:17.949Z,51.60
2022-08-20T08:28:20.763Z,54.53
2022-08-20T08:31:22.349Z,49.95
2022-08-20T08:34:25.294Z,51.67
2022-08-20T08:37:30.458Z,56.80
2022-08-20T08:40:33.708Z,46.50
2022-08-20T08:43:35.374Z,59.30
2022-08-20T08:46:48.330Z,59.05
2022-08-20T08:49:49.919Z,66.28
2022-08-20T08:52:58.997Z,57.22
2022-08-20T08:56:01.030Z,56.83
2022-08-20T08:59:06.028Z,65.80
2022-08-20T09:02:08.434Z,52.85
2022-08-20T09:05:15.878Z,57.50
2022-08-20T09:08:24.359Z,55.28
2022-08-20T09:11:26.051Z,48.95
2022-08-20T09:14:27.681Z,50.50
2022-08-20T09:17:29.281Z,55.85
2022-08-20T09:20:31.422Z,53.38
2022-08-20T09:23:33.907Z,49.38
2022-08-20T09:26:39.225Z,58.30
2022-08-20T09:29:42.337Z,56.65
2022-08-20T09:32:45.197Z,54.97
2022-08-20T09:35:46.793Z,46.70
2022-08-20T09:38:48.461Z,51.70
2022-08-20T09:41:50.109Z,51.50
2022-08-20T09:44:51.861Z,52.63
2022-08-20T09:47:56.622Z,48.80
2022-08-20T09:50:59.204Z,45.60
2022-08-20T09:54:02.259Z,43.70
2022-08-20T09:57:07.187Z,48.08
2022-08-20T10:00:11.113Z,45.95
2022-08-20T10:03:12.962Z,46.75
2022-08-20T10:06:16.649Z,48.75
2022-08-20T10:09:18.875Z,46.65
2022-08-20T10:12:20.493Z,49.30
2022-08-20T10:15:22.103Z,42.65
2022-08-20T10:18:23.737Z,47.47
2022-08-20T10:21:25.461Z,42.28
2022-08-20T10:24:27.984Z,39.10
2022-08-20T10:27:29.674Z,37.25
2022-08-20T10:30:31.299Z,37.30
2022-08-20T10:33:32.978Z,42.72
2022-08-20T10:36:34.638Z,38.28
2022-08-20T10:39:36.492Z,36.20
2022-08-20T10:42:42.454Z,38.08
2022-08-20T10:45:44.370Z,30.38
2022-08-20T10:48:46.261Z,35.53
2022-08-20T10:51:47.919Z,33.05
2022-08-20T10:54:51.117Z,36.00
2022-08-20T10:57:52.747Z,35.45
2022-08-20T11:00:54.427Z,31.58
2022-08-20T11:03:56.134Z,31.15
2022-08-20T11:06:57.696Z,38.55
2022-08-20T11:09:59.390Z,35.05
2022-08-20T11:13:06.022Z,30.85
2022-08-20T11:16:07.645Z,33.90
2022-08-20T11:19:09.223Z,31.10
2022-08-20T11:22:11.587Z,28.73
2022-08-20T11:25:13.655Z,29.25
2022-08-20T11:28:15.894Z,34.80
2022-08-20T11:31:17.891Z,33.92
2022-08-20T11:34:19.626Z,32.70
2022-08-20T11:37:24.348Z,30.52
2022-08-20T11:40:26.992Z,31.80
2022-08-20T11:43:28.634Z,33.35
2022-08-20T11:46:32.753Z,31.38
2022-08-20T11:49:36.878Z,34.65
2022-08-20T11:52:38.575Z,35.45
2022-08-20T11:55:40.302Z,27.42
2022-08-20T11:58:42.901Z,28.33
2022-08-20T12:01:49.902Z,27.90
2022-08-20T12:05:04.840Z,31.15
2022-08-20T12:08:06.950Z,30.80
2022-08-20T12:11:08.638Z,32.38
2022-08-20T12:14:10.351Z,26.75
2022-08-20T12:17:17.622Z,23.88
2022-08-20T12:20:19.822Z,22.75
2022-08-20T12:23:21.429Z,26.85
2022-08-20T12:26:23.159Z,23.15
2022-08-20T12:29:25.947Z,27.60
2022-08-20T12:32:30.616Z,23.45
2022-08-20T12:35:32.416Z,20.88
2022-08-20T12:38:37.075Z,25.67
2022-08-20T12:41:38.640Z,55.72
2022-08-20T12:44:41.031Z,25.67
2022-08-20T12:47:45.707Z,29.73
2022-08-20T12:50:47.464Z,25.60
2022-08-20T12:53:49.047Z,23.63
2022-08-20T12:56:51.965Z,24.77
2022-08-20T12:59:53.947Z,23.75
2022-08-20T13:02:58.034Z,22.60
2022-08-20T13:06:01.557Z,19.20
2022-08-20T13:09:03.269Z,20.05
2022-08-20T13:12:05.263Z,22.02
2022-08-20T13:15:07.908Z,23.80
2022-08-20T13:18:09.675Z,20.77
2022-08-20T13:21:11.291Z,19.70
2022-08-20T13:24:12.931Z,14.27
2022-08-20T13:27:18.461Z,15.93
2022-08-20T13:30:20.587Z,16.50
2022-08-20T13:33:22.208Z,14.50
2022-08-20T13:36:23.852Z,12.57
2022-08-20T13:39:25.480Z,19.15
2022-08-20T13:42:27.844Z,19.05
2022-08-20T13:45:29.592Z,13.55
2022-08-20T13:48:31.199Z,16.88
2022-08-20T13:51:32.757Z,11.82
2022-08-20T13:54:34.597Z,15.20
2022-08-20T13:57:36.968Z,8.77
2022-08-20T14:00:38.665Z,13.18
2022-08-20T14:03:40.496Z,16.42
2022-08-20T14:06:44.392Z,19.25
2022-08-20T14:09:50.287Z,19.13
2022-08-20T14:12:51.974Z,14.27
2022-08-20T14:15:54.771Z,16.17
2022-08-20T14:18:56.547Z,15.50
2022-08-20T14:21:58.180Z,18.27
2022-08-20T14:25:03.348Z,16.90
2022-08-20T14:28:13.485Z,14.35
2022-08-20T14:31:15.116Z,12.68
2022-08-20T14:34:16.682Z,15.90
2022-08-20T14:37:26.436Z,12.90
2022-08-20T14:40:28.623Z,17.27
2022-08-20T14:43:30.227Z,17.10
2022-08-20T14:46:31.877Z,17.58
2022-08-20T14:49:33.463Z,14.60
2022-08-20T14:52:36.622Z,11.88
2022-08-20T14:55:38.699Z,9.63
2022-08-20T14:58:40.276Z,31.23
2022-08-20T15:01:41.960Z,22.45
2022-08-20T15:04:45.452Z,16.35
2022-08-20T15:07:56.948Z,11.15
2022-08-20T15:10:58.615Z,12.77
2022-08-20T15:14:00.189Z,14.13
2022-08-20T15:17:01.801Z,14.07
2022-08-20T15:20:20.744Z,10.88
2022-08-20T15:23:22.914Z,13.23
2022-08-20T15:26:24.735Z,20.48
2022-08-20T15:29:26.390Z,13.23
2022-08-20T15:32:27.941Z,27.08
2022-08-20T15:35:29.625Z,7.82
2022-08-20T15:38:32.891Z,12.45
2022-08-20T15:41:34.685Z,17.02
2022-08-20T15:44:36.858Z,13.43
2022-08-20T15:47:48.527Z,15.75
2022-08-20T15:51:27.756Z,15.73
2022-08-20T15:54:29.963Z,16.88
2022-08-20T15:57:40.564Z,17.42
2022-08-20T16:01:01.940Z,18.55
2022-08-20T16:04:52.326Z,16.55
2022-08-20T16:08:20.791Z,12.95
2022-08-20T16:11:29.003Z,11.23
2022-08-20T16:14:36.610Z,16.10
2022-08-20T16:17:45.828Z,14.13
2022-08-20T16:20:51.278Z,11.68
2022-08-20T16:23:55.256Z,11.88
2022-08-20T16:27:19.233Z,14.35
2022-08-20T16:30:43.477Z,9.35
2022-08-20T16:34:10.522Z,12.55
2022-08-20T16:37:45.113Z,11.93
2022-08-20T16:40:53.277Z,10.35
2022-08-20T16:44:02.177Z,10.25
2022-08-20T16:47:14.283Z,11.45
2022-08-20T16:50:40.769Z,16.10
2022-08-20T16:53:42.467Z,12.57
2022-08-20T16:56:47.489Z,10.30
2022-08-20T17:00:16.184Z,7.80
2022-08-20T17:03:31.484Z,9.15
2022-08-20T17:06:47.280Z,10.02
2022-08-20T17:09:48.863Z,10.80
2022-08-20T17:12:59.679Z,9.25
2022-08-20T17:16:06.842Z,12.60
2022-08-20T17:19:19.682Z,16.98
2022-08-20T17:22:21.887Z,12.63
2022-08-20T17:25:35.337Z,9.27
2022-08-20T17:28:36.981Z,19.73
2022-08-20T17:32:00.756Z,13.40
2022-08-20T17:35:04.236Z,14.07
2022-08-20T17:38:06.027Z,13.20
2022-08-20T17:41:17.074Z,11.43
2022-08-20T17:44:29.245Z,15.00
2022-08-20T17:47:35.999Z,8.55
2022-08-20T17:50:40.383Z,17.90
2022-08-20T17:53:43.947Z,18.38
2022-08-20T17:56:45.662Z,12.38
2022-08-20T18:00:01.377Z,13.90
2022-08-20T18:03:23.561Z,15.13
2022-08-20T18:06:31.131Z,12.48
2022-08-20T18:09:48.010Z,10.85
2022-08-20T18:13:19.691Z,10.95
2022-08-20T18:16:49.217Z,12.52
2022-08-20T18:20:15.682Z,14.93
2022-08-20T18:23:23.699Z,8.65
2022-08-20T18:26:41.897Z,15.65
2022-08-20T18:29:46.636Z,15.20
2022-08-20T18:32:59.839Z,12.50
2022-08-20T18:36:19.300Z,16.65
2022-08-20T18:39:39.677Z,15.60
2022-08-20T18:45:43.048Z,13.82
2022-08-20T18:48:57.771Z,11.60
2022-08-20T18:52:34.894Z,12.98
2022-08-20T18:55:46.122Z,11.95
2022-08-20T18:59:03.495Z,13.75
2022-08-20T19:02:23.662Z,16.05
2022-08-20T19:08:59.570Z,13.55
2022-08-20T19:12:41.199Z,21.25
2022-08-20T19:15:50.451Z,10.15
2022-08-20T19:18:54.324Z,19.52
2022-08-20T19:21:56.935Z,13.65
2022-08-20T19:24:58.705Z,11.45
2022-08-20T19:28:06.040Z,14.10
2022-08-20T19:31:15.187Z,11.05
2022-08-20T19:34:24.023Z,15.57
2022-08-20T19:37:40.005Z,20.10
2022-08-20T19:41:02.086Z,14.15
2022-08-20T19:44:32.028Z,15.88
2022-08-20T19:47:49.124Z,15.63
2022-08-20T19:50:58.934Z,14.52
2022-08-20T19:54:00.793Z,14.23
2022-08-20T19:57:07.600Z,15.23
2022-08-20T20:00:12.952Z,17.55
2022-08-20T20:03:21.441Z,14.70
2022-08-20T20:06:25.510Z,13.95
2022-08-20T20:09:30.498Z,15.20
2022-08-20T20:12:33.885Z,15.57
2022-08-20T20:15:36.906Z,14.45
2022-08-20T20:18:41.647Z,10.80
2022-08-20T20:21:46.177Z,16.73
2022-08-20T20:25:02.682Z,12.18
2022-08-20T20:28:14.424Z,9.68
2022-08-20T20:31:45.027Z,15.82
2022-08-20T20:34:57.965Z,15.13
2022-08-20T20:38:09.229Z,18.02
2022-08-20T20:41:22.760Z,21.58
2022-08-20T20:44:36.958Z,20.95
2022-08-20T20:47:38.975Z,21.23
2022-08-20T20:50:40.713Z,17.23
2022-08-20T20:53:53.059Z,11.18
2022-08-20T20:56:57.743Z,17.40
2022-08-20T20:59:59.812Z,15.18
2022-08-20T21:03:02.822Z,11.75
2022-08-20T21:06:06.968Z,11.52
2022-08-20T21:09:08.619Z,10.88
2022-08-20T21:12:12.180Z,14.75
2022-08-20T21:15:14.201Z,14.30
2022-08-20T21:18:16.018Z,14.38
2022-08-20T21:21:17.676Z,19.73
2022-08-20T21:24:19.377Z,13.45
2022-08-20T21:27:24.506Z,15.80
2022-08-20T21:30:27.130Z,20.17
2022-08-20T21:33:28.700Z,13.23
2022-08-20T21:36:30.531Z,13.98
2022-08-20T21:39:32.107Z,13.90
2022-08-20T21:42:36.988Z,17.42
2022-08-20T21:45:38.900Z,19.08
2022-08-20T21:48:43.207Z,14.93
2022-08-20T21:51:47.662Z,11.55
2022-08-20T21:54:49.263Z,13.18
2022-08-20T21:57:50.909Z,11.38
2022-08-20T22:01:02.027Z,19.95
2022-08-20T22:04:07.844Z,17.38
2022-08-20T22:07:10.515Z,14.15
2022-08-20T22:10:12.147Z,13.25
2022-08-20T22:13:13.862Z,10.52
2022-08-20T22:16:18.983Z,10.48
2022-08-20T22:19:20.927Z,18.23
2022-08-20T22:22:23.049Z,12.57
2022-08-20T22:25:24.821Z,13.52
2022-08-20T22:28:26.534Z,16.70
2022-08-20T22:31:31.499Z,22.08
2022-08-20T22:34:34.957Z,14.40
2022-08-20T22:37:36.848Z,11.93
2022-08-20T22:40:38.507Z,14.90
2022-08-20T22:43:43.487Z,16.13
2022-08-20T22:47:06.387Z,14.93
2022-08-20T22:50:08.444Z,16.98
2022-08-20T22:53:11.404Z,14.40
2022-08-20T22:56:19.895Z,13.02
2022-08-20T23:02:25.567Z,17.08
2022-08-20T23:05:29.289Z,15.15
2022-08-20T23:08:31.251Z,13.05
2022-08-20T23:11:32.992Z,12.60
2022-08-20T23:14:34.681Z,17.90
2022-08-20T23:17:38.005Z,11.95
2022-08-20T23:20:41.028Z,16.48
2022-08-20T23:23:42.694Z,14.82
2022-08-20T23:26:52.539Z,15.27
2022-08-20T23:32:56.633Z,19.73
2022-08-20T23:35:59.685Z,15.70
2022-08-20T23:39:01.338Z,17.60
2022-08-20T23:42:10.583Z,18.67
2022-08-20T23:45:12.852Z,14.82
2022-08-20T23:48:14.465Z,17.63
2022-08-20T23:51:16.210Z,15.98
2022-08-20T23:54:17.959Z,16.10
2022-08-20T23:57:20.951Z,15.18
